Pittsburg, OK (74560)

5:34 AM CDT on March 27, 2017 (GMT -0500)
Kiowa, West Side | | Change Station

Elev 754 ft 34.72 °N, 95.91 °W | Updated 2 minutes ago

Overcast
Overcast
63.3 °F
Feels Like 63.3 °F
N
1.3
Wind Variable Wind from SE
Gusts 4.0 mph

Today
High -- | Low -- °F
--% Chance of Precip.
Yesterday
High -- | Low -- °F
Precip. -- in
Pressure 29.73 in
Visibility 10.0 miles
Clouds Mostly Cloudy 2300 ft
Mostly Cloudy 2800 ft
Dew Point 60 °F
Humidity 90%
Rainfall 0.00 in
Snow Depth Not available.
7:16 AM 7:40 PM
Waning Crescent, 1% visible
METAR KMLC 270953Z AUTO 19006G16KT 10SM BKN023 BKN028 18/14 A2975 RMK AO2 SLP065 T01780144
Pressure 29.73 in
Visibility 10.0 miles
Clouds Mostly Cloudy 2300 ft
Mostly Cloudy 2800 ft
Dew Point 60 °F
Humidity 90%
Rainfall 0.00 in
Snow Depth Not available.
7:16 AM 7:40 PM
Waning Crescent, 1% visible
METAR KMLC 270953Z AUTO 19006G16KT 10SM BKN023 BKN028 18/14 A2975 RMK AO2 SLP065 T01780144

Get Severe Weather Alerts

Thanks for signing up!

Be on the lookout for a verification email in your inbox.

You'll start receiving the daily forecast at 8 AM.

×

10-Day Weather Forecast

Almanac

Astronomy

Mar. 27, 2017 Rise Set
Actual Time
Civil Twilight
Nautical Twilight
Astronomical Twilight
Moon
Length of Visible Light
Length of Day
Tomorrow will be .
, % of the Moon is Illuminated

Today's Extremes

State Highs State Lows

Community

WunderPhotos

Upload Photos

1,962,540 photos uploaded!

WunderBlog® & News

Nearby

Air Quality

  Air Quality AQ Index Pollutant
Not available.

Snow Depth

Station Depth Elevation

Earthquake Activity

City Distance Mag. Time & Date
Minimum magnitude displayed is 2.5.

Earthquake Activity

City Distance Mag. Time & Date
Minimum magnitude displayed is 2.5.

Coastal Water Temperatures

Place Temperature

Stations

Nearby Weather Stations

Station Location Temp. Windchill Dew Point Humidity Wind Precip. Elev Updated Type
                   

Watches & Warnings

There are currently no watches in effect.